Time;durP1;ratioP1;P1;durP2;ratioP2;P2;SDS_P1;SDS_P2;PMS_P1;PMS_P2;Temp;Humidity;BMP_temperature;BMP_pressure;BME280_temperature;BME280_humidity;BME280_pressure;Samples;Min_cycle;Max_cycle;Signal;HPM_P1;HPM_P2
2021/06/22 00:01:49;;;;;;;11.80;6.80;;;15.00;99.90;;;;;;4992360;28;20263;-67
2021/06/22 00:04:15;;;;;;;10.50;7.03;;;15.00;99.90;;;;;;4988136;28;20674;-68
2021/06/22 00:06:40;;;;;;;6.97;6.27;;;15.00;99.90;;;;;;4987193;28;20640;-68
2021/06/22 00:09:06;;;;;;;6.93;5.57;;;15.00;99.90;;;;;;4988556;28;20605;-68
2021/06/22 00:11:31;;;;;;;7.53;6.73;;;15.00;99.90;;;;;;4986766;28;20299;-68
2021/06/22 00:13:58;;;;;;;8.27;5.83;;;15.00;99.90;;;;;;4991997;28;20665;-68
2021/06/22 00:16:24;;;;;;;7.30;6.30;;;14.90;99.90;;;;;;4994755;28;20288;-68
2021/06/22 00:18:49;;;;;;;10.53;6.70;;;14.90;99.90;;;;;;4991809;28;20675;-68
2021/06/22 00:21:15;;;;;;;11.20;6.40;;;14.90;99.90;;;;;;4981841;28;20213;-68
2021/06/22 00:23:41;;;;;;;9.67;6.33;;;14.90;99.90;;;;;;4981089;28;20194;-68
2021/06/22 00:26:06;;;;;;;8.10;6.07;;;14.90;99.90;;;;;;4995746;28;20231;-68
2021/06/22 00:28:32;;;;;;;6.17;5.63;;;14.90;99.90;;;;;;4993702;28;20193;-68
2021/06/22 00:30:57;;;;;;;6.63;5.53;;;14.90;99.90;;;;;;4970432;28;21950;-68
2021/06/22 00:33:23;;;;;;;8.03;6.03;;;14.90;99.90;;;;;;4993899;28;20255;-68
2021/06/22 00:35:48;;;;;;;11.83;6.23;;;14.80;99.90;;;;;;4993742;28;20705;-68
2021/06/22 00:38:14;;;;;;;9.37;7.00;;;14.80;99.90;;;;;;4988278;28;20902;-68
2021/06/22 00:40:40;;;;;;;7.70;6.50;;;14.90;99.90;;;;;;4988776;28;20673;-68
2021/06/22 00:43:05;;;;;;;9.27;6.57;;;14.90;99.90;;;;;;4992798;28;20728;-68
2021/06/22 00:45:34;;;;;;;7.77;6.00;;;14.80;99.90;;;;;;4988686;28;20241;-68
2021/06/22 00:48:01;;;;;;;9.23;5.90;;;14.90;99.90;;;;;;4990261;28;20228;-68
2021/06/22 00:50:29;;;;;;;9.43;6.90;;;14.80;99.90;;;;;;4993456;28;20674;-68
2021/06/22 00:52:55;;;;;;;7.20;6.37;;;14.80;99.90;;;;;;4987544;28;20787;-68
2021/06/22 00:55:30;;;;;;;7.97;5.97;;;14.80;99.90;;;;;;4991355;28;20719;-68
2021/06/22 00:58:07;;;;;;;8.47;6.33;;;14.80;99.90;;;;;;4992107;28;20242;-68
2021/06/22 01:00:37;;;;;;;8.40;6.23;;;14.80;99.90;;;;;;4992482;28;21029;-68
2021/06/22 01:03:04;;;;;;;10.80;6.70;;;14.80;99.90;;;;;;4991150;28;20654;-68
2021/06/22 01:05:31;;;;;;;8.33;6.07;;;14.80;99.90;;;;;;4955344;28;22762;-68
2021/06/22 01:08:00;;;;;;;7.70;5.90;;;14.90;99.90;;;;;;4990587;28;20708;-68
2021/06/22 01:10:27;;;;;;;8.80;6.60;;;14.90;99.90;;;;;;4987729;28;20647;-68
2021/06/22 01:12:53;;;;;;;8.00;6.13;;;14.90;99.90;;;;;;4989232;28;20672;-68
2021/06/22 01:15:25;;;;;;;8.93;6.67;;;14.80;99.90;;;;;;4991419;28;20633;-68
2021/06/22 01:17:55;;;;;;;8.20;6.63;;;14.90;99.90;;;;;;4991944;28;20631;-68
2021/06/22 01:20:22;;;;;;;10.53;7.40;;;14.80;99.90;;;;;;4998550;28;20681;-68
2021/06/22 01:22:49;;;;;;;10.23;7.13;;;14.80;99.90;;;;;;5005238;28;20642;-68
2021/06/22 01:25:15;;;;;;;7.00;6.00;;;14.90;99.90;;;;;;5005002;28;20734;-68
2021/06/22 01:27:42;;;;;;;8.27;6.53;;;14.80;99.90;;;;;;4975361;28;21277;-68
2021/06/22 01:30:08;;;;;;;7.60;6.83;;;14.80;99.90;;;;;;4990978;28;20667;-68
2021/06/22 01:32:35;;;;;;;7.30;5.93;;;14.80;99.90;;;;;;4972485;28;20644;-68
2021/06/22 01:35:00;;;;;;;12.20;7.20;;;14.80;99.90;;;;;;4992274;28;20620;-68
2021/06/22 01:37:26;;;;;;;7.40;6.47;;;14.80;99.90;;;;;;4992792;28;20635;-67
2021/06/22 01:39:51;;;;;;;10.03;6.87;;;14.70;99.90;;;;;;4989722;28;20269;-68
2021/06/22 01:42:19;;;;;;;10.97;6.43;;;14.70;99.90;;;;;;4984796;28;20233;-68
2021/06/22 01:44:47;;;;;;;8.63;7.20;;;14.70;99.90;;;;;;4996657;28;20839;-67
2021/06/22 01:47:13;;;;;;;9.80;7.23;;;14.70;99.90;;;;;;4986461;28;21749;-68
2021/06/22 01:49:39;;;;;;;9.20;8.30;;;14.70;99.90;;;;;;4992026;28;20624;-68
2021/06/22 01:52:05;;;;;;;7.20;6.47;;;14.70;99.90;;;;;;4988480;28;21244;-68
2021/06/22 01:54:31;;;;;;;8.90;6.87;;;14.70;99.90;;;;;;4985127;28;20796;-68
2021/06/22 01:56:58;;;;;;;10.03;6.70;;;14.70;99.90;;;;;;4985935;28;21203;-68
2021/06/22 01:59:24;;;;;;;9.87;7.00;;;14.70;99.90;;;;;;4988103;28;20616;-68
2021/06/22 02:01:49;;;;;;;8.07;6.50;;;14.70;99.90;;;;;;4972080;28;21261;-68
2021/06/22 02:04:16;;;;;;;8.27;5.73;;;14.70;99.90;;;;;;4991060;28;20194;-68
2021/06/22 02:06:43;;;;;;;9.43;6.53;;;14.70;99.90;;;;;;4983903;28;20786;-68
2021/06/22 02:09:09;;;;;;;8.07;6.90;;;14.70;99.90;;;;;;4987203;28;20674;-68
2021/06/22 02:11:35;;;;;;;6.93;6.03;;;14.70;99.90;;;;;;4984281;28;20681;-68
2021/06/22 02:14:01;;;;;;;8.07;6.33;;;14.70;99.90;;;;;;4988973;28;20956;-68
2021/06/22 02:16:26;;;;;;;9.53;6.43;;;14.70;99.90;;;;;;4990393;28;20230;-68
2021/06/22 02:18:52;;;;;;;9.00;6.63;;;14.70;99.90;;;;;;4987407;28;20620;-68
2021/06/22 02:21:18;;;;;;;8.83;6.60;;;14.70;99.90;;;;;;4985198;28;20212;-68
2021/06/22 02:23:44;;;;;;;7.73;7.00;;;14.70;99.90;;;;;;4987088;28;20409;-67
2021/06/22 02:26:09;;;;;;;7.27;6.53;;;14.70;99.90;;;;;;4986631;28;20735;-68
2021/06/22 02:28:35;;;;;;;8.20;6.17;;;14.80;99.90;;;;;;4990526;28;20236;-68
2021/06/22 02:31:03;;;;;;;7.03;5.90;;;14.80;99.90;;;;;;4986680;28;20228;-68
2021/06/22 02:33:29;;;;;;;9.50;6.27;;;14.80;99.90;;;;;;4986415;28;20751;-69
2021/06/22 02:35:55;;;;;;;8.87;6.30;;;14.80;99.90;;;;;;4993917;28;20735;-68
2021/06/22 02:38:21;;;;;;;8.90;6.37;;;14.80;99.90;;;;;;4993224;28;20185;-68
2021/06/22 02:40:48;;;;;;;12.70;6.70;;;14.80;99.90;;;;;;4984714;28;21296;-69
2021/06/22 02:43:14;;;;;;;9.67;6.77;;;14.80;99.90;;;;;;4991919;28;22140;-68
2021/06/22 02:45:41;;;;;;;7.13;6.30;;;14.80;99.90;;;;;;4994638;28;21713;-68
2021/06/22 02:48:10;;;;;;;9.70;6.80;;;14.80;99.90;;;;;;4971248;28;20658;-68
2021/06/22 02:50:37;;;;;;;7.43;5.90;;;14.80;99.90;;;;;;4986676;28;20663;-68
2021/06/22 02:53:03;;;;;;;9.33;6.60;;;14.90;99.90;;;;;;4985680;28;20684;-68
2021/06/22 02:55:29;;;;;;;8.90;6.20;;;14.90;99.90;;;;;;4988105;28;20724;-67
2021/06/22 02:57:56;;;;;;;11.27;6.67;;;14.80;99.90;;;;;;4988514;28;20198;-68
2021/06/22 03:00:27;;;;;;;8.00;5.77;;;14.80;99.90;;;;;;4988969;28;20606;-68
2021/06/22 03:02:54;;;;;;;10.10;6.43;;;14.90;99.90;;;;;;4987035;28;20719;-67
2021/06/22 03:05:20;;;;;;;9.13;6.40;;;14.80;99.90;;;;;;4981885;28;20679;-67
2021/06/22 03:07:46;;;;;;;8.47;6.03;;;14.80;99.90;;;;;;4985077;28;21698;-68
2021/06/22 03:10:13;;;;;;;9.60;6.27;;;14.80;99.90;;;;;;4987013;28;20612;-68
2021/06/22 03:12:40;;;;;;;8.63;6.20;;;14.80;99.90;;;;;;4986137;28;20648;-67
2021/06/22 03:15:08;;;;;;;7.80;6.17;;;14.80;99.90;;;;;;4986637;28;20724;-68
2021/06/22 03:17:34;;;;;;;8.03;6.30;;;14.80;99.90;;;;;;4990105;28;21183;-68
2021/06/22 03:20:00;;;;;;;8.77;6.40;;;14.80;99.90;;;;;;4986526;28;20620;-69
2021/06/22 03:22:25;;;;;;;8.97;6.40;;;14.70;99.90;;;;;;4982427;28;20221;-68
2021/06/22 03:24:51;;;;;;;6.40;5.70;;;14.70;99.90;;;;;;4967381;28;20292;-68
2021/06/22 03:27:18;;;;;;;8.00;6.43;;;14.80;99.90;;;;;;4975327;28;20667;-68
2021/06/22 03:29:44;;;;;;;8.57;6.13;;;14.80;99.90;;;;;;4989402;28;20275;-68
2021/06/22 03:32:10;;;;;;;10.47;6.00;;;14.70;99.90;;;;;;4986811;28;20752;-68
2021/06/22 03:34:36;;;;;;;6.13;5.47;;;14.70;99.90;;;;;;4989577;28;20345;-68
2021/06/22 03:37:03;;;;;;;7.67;5.97;;;14.70;99.90;;;;;;4976571;28;20744;-68
2021/06/22 03:39:29;;;;;;;8.47;5.77;;;14.70;99.90;;;;;;4971865;28;21289;-68
2021/06/22 03:41:55;;;;;;;6.40;5.80;;;14.80;99.90;;;;;;4985357;28;20652;-69
2021/06/22 03:44:23;;;;;;;6.50;5.77;;;14.80;99.90;;;;;;4991749;28;20669;-68
2021/06/22 03:46:48;;;;;;;9.00;6.33;;;14.80;99.90;;;;;;4999201;28;20307;-68
2021/06/22 03:49:14;;;;;;;9.33;5.90;;;14.80;99.90;;;;;;4991905;28;20683;-68
2021/06/22 03:51:39;;;;;;;8.27;5.90;;;14.80;99.90;;;;;;4963580;28;20300;-70
2021/06/22 03:54:05;;;;;;;10.13;6.20;;;14.90;99.90;;;;;;4989081;28;20202;-68
2021/06/22 03:56:31;;;;;;;7.23;5.70;;;14.90;99.90;;;;;;4984147;28;20222;-68
2021/06/22 03:58:57;;;;;;;8.90;5.10;;;14.90;99.90;;;;;;4988355;28;20268;-68
2021/06/22 04:01:23;;;;;;;5.67;5.13;;;14.90;99.90;;;;;;4988879;28;20837;-68
2021/06/22 04:03:49;;;;;;;10.80;5.73;;;14.90;99.90;;;;;;4982474;28;20648;-68
2021/06/22 04:06:15;;;;;;;8.63;5.47;;;14.90;99.90;;;;;;4982483;28;20234;-68
2021/06/22 04:08:41;;;;;;;8.93;6.23;;;15.00;99.90;;;;;;4973118;28;20181;-68
2021/06/22 04:11:10;;;;;;;7.00;5.80;;;15.00;99.90;;;;;;4973186;28;20698;-68
2021/06/22 04:13:36;;;;;;;7.10;6.20;;;15.00;99.90;;;;;;5002092;28;20641;-68
2021/06/22 04:16:01;;;;;;;8.47;5.30;;;15.00;99.90;;;;;;4989070;28;20637;-69
2021/06/22 04:18:27;;;;;;;5.73;5.20;;;15.00;99.90;;;;;;4991075;28;20629;-68
2021/06/22 04:20:53;;;;;;;8.23;5.10;;;15.00;99.90;;;;;;4989893;28;20209;-68
2021/06/22 04:23:19;;;;;;;7.40;6.00;;;15.00;99.90;;;;;;4986782;28;20300;-68
2021/06/22 04:25:44;;;;;;;8.53;6.03;;;15.00;99.90;;;;;;4985063;28;20233;-68
2021/06/22 04:28:11;;;;;;;6.77;6.07;;;15.10;99.90;;;;;;4982081;28;20654;-68
2021/06/22 04:30:39;;;;;;;6.93;5.57;;;15.00;99.90;;;;;;4983835;28;20226;-67
2021/06/22 04:33:06;;;;;;;7.13;5.57;;;15.00;99.90;;;;;;4983233;28;20734;-68
2021/06/22 04:35:32;;;;;;;6.90;5.43;;;14.90;99.90;;;;;;4983718;28;20645;-68
2021/06/22 04:37:59;;;;;;;7.37;5.90;;;15.10;99.90;;;;;;4988431;28;21246;-68
2021/06/22 04:40:25;;;;;;;9.93;5.57;;;15.00;99.90;;;;;;4984446;28;20736;-69
2021/06/22 04:42:51;;;;;;;11.20;6.63;;;15.00;99.90;;;;;;4979385;28;20866;-68
2021/06/22 04:45:16;;;;;;;8.43;5.60;;;15.00;99.90;;;;;;4988063;28;20224;-68
2021/06/22 04:47:42;;;;;;;5.63;5.10;;;15.00;99.90;;;;;;4991185;28;20208;-69
2021/06/22 04:50:08;;;;;;;9.53;6.00;;;15.00;99.90;;;;;;4984217;28;20189;-69
2021/06/22 04:52:34;;;;;;;7.33;5.80;;;15.00;99.90;;;;;;4986462;28;20985;-68
2021/06/22 04:54:59;;;;;;;9.60;6.57;;;14.90;99.90;;;;;;4983192;28;21623;-68
2021/06/22 04:57:25;;;;;;;7.20;5.30;;;15.00;99.90;;;;;;4972329;28;20189;-68
2021/06/22 04:59:51;;;;;;;6.30;5.00;;;15.00;99.90;;;;;;4990327;28;20192;-68
2021/06/22 05:02:17;;;;;;;8.40;5.33;;;15.00;99.90;;;;;;4983665;28;20214;-68
2021/06/22 05:04:42;;;;;;;12.63;5.60;;;15.00;99.90;;;;;;4984123;28;20193;-69
2021/06/22 05:07:08;;;;;;;11.60;5.87;;;15.00;99.90;;;;;;4969025;28;20285;-69
2021/06/22 05:09:33;;;;;;;6.30;4.90;;;15.00;99.90;;;;;;4978768;28;21972;-69
2021/06/22 05:11:59;;;;;;;7.00;5.30;;;15.00;99.90;;;;;;4972017;28;20221;-69
2021/06/22 05:14:24;;;;;;;8.60;5.37;;;15.00;99.90;;;;;;4982491;28;20213;-69
2021/06/22 05:16:50;;;;;;;7.67;5.10;;;14.90;99.90;;;;;;4981279;28;20228;-68
2021/06/22 05:19:17;;;;;;;10.33;6.33;;;14.90;99.90;;;;;;4978211;28;20249;-68
2021/06/22 05:21:45;;;;;;;7.17;4.57;;;14.90;99.90;;;;;;4982718;28;20434;-68
2021/06/22 05:24:12;;;;;;;5.53;4.77;;;14.90;99.90;;;;;;4984669;28;20624;-67
2021/06/22 05:26:38;;;;;;;5.10;4.50;;;15.00;99.90;;;;;;4959002;28;22163;-69
2021/06/22 05:29:03;;;;;;;9.50;5.27;;;15.00;99.90;;;;;;4967359;28;20976;-69
2021/06/22 05:31:29;;;;;;;8.63;5.00;;;15.00;99.90;;;;;;4955970;28;20758;-69
2021/06/22 05:33:56;;;;;;;6.80;4.80;;;15.00;99.90;;;;;;4964551;28;21024;-70
2021/06/22 05:36:21;;;;;;;9.23;5.53;;;15.10;99.90;;;;;;4984871;28;20789;-69
2021/06/22 05:38:47;;;;;;;9.97;5.10;;;15.10;99.90;;;;;;4967014;28;20671;-70
2021/06/22 05:41:13;;;;;;;6.03;4.83;;;15.20;99.90;;;;;;4992191;28;21340;-70
2021/06/22 05:43:39;;;;;;;7.40;4.50;;;15.20;99.90;;;;;;4989014;28;20202;-70
2021/06/22 05:46:05;;;;;;;6.50;4.43;;;15.30;99.90;;;;;;4980151;28;20644;-70
2021/06/22 05:48:31;;;;;;;8.70;5.00;;;15.30;99.90;;;;;;4987563;28;20656;-69
2021/06/22 05:50:56;;;;;;;5.27;4.20;;;15.30;99.90;;;;;;4962513;28;20707;-70
2021/06/22 05:53:22;;;;;;;7.30;4.80;;;15.40;99.90;;;;;;4981275;28;20221;-70
2021/06/22 05:55:48;;;;;;;5.20;4.60;;;15.40;99.90;;;;;;4975622;28;20225;-70
2021/06/22 05:58:14;;;;;;;8.73;4.90;;;15.50;99.90;;;;;;4982084;28;20196;-70
2021/06/22 06:00:39;;;;;;;6.73;4.60;;;15.50;99.90;;;;;;4986296;28;20652;-69
2021/06/22 06:03:07;;;;;;;6.73;4.50;;;15.50;99.90;;;;;;4976045;28;20663;-71
2021/06/22 06:05:33;;;;;;;4.97;4.47;;;15.50;99.90;;;;;;4970768;28;20238;-70
2021/06/22 06:07:59;;;;;;;7.30;4.43;;;15.50;99.90;;;;;;4983239;28;20631;-70
2021/06/22 06:10:25;;;;;;;6.60;4.40;;;15.50;99.90;;;;;;4982258;28;20202;-70
2021/06/22 06:12:51;;;;;;;9.60;5.13;;;15.50;99.90;;;;;;4981190;28;20224;-70
2021/06/22 06:15:18;;;;;;;8.10;4.40;;;15.50;99.90;;;;;;4984612;28;20660;-71
2021/06/22 06:17:44;;;;;;;4.87;4.37;;;15.50;99.90;;;;;;4974371;28;20622;-70
2021/06/22 06:20:11;;;;;;;7.80;4.83;;;15.50;99.90;;;;;;4986773;28;20710;-70
2021/06/22 06:22:37;;;;;;;6.80;4.73;;;15.50;99.90;;;;;;4993281;28;21231;-71
2021/06/22 06:25:05;;;;;;;11.77;5.30;;;15.60;99.90;;;;;;4989325;28;21357;-70
2021/06/22 06:27:44;;;;;;;8.23;4.70;;;15.60;99.90;;;;;;4969762;28;20643;-70
2021/06/22 06:30:13;;;;;;;9.30;4.47;;;15.80;99.90;;;;;;4980154;28;20692;-70
2021/06/22 06:32:39;;;;;;;5.47;4.20;;;15.80;99.90;;;;;;4981615;28;20660;-70
2021/06/22 06:35:05;;;;;;;7.00;4.13;;;15.90;99.90;;;;;;4977274;28;21095;-70
2021/06/22 06:37:31;;;;;;;5.37;4.27;;;15.90;99.90;;;;;;4985659;28;20310;-70
2021/06/22 06:39:56;;;;;;;5.60;4.03;;;15.90;99.90;;;;;;4988763;28;21496;-70
2021/06/22 06:42:22;;;;;;;4.97;4.30;;;16.00;99.90;;;;;;4983143;28;20643;-70
2021/06/22 06:44:48;;;;;;;7.80;4.93;;;16.00;99.90;;;;;;4962822;28;20178;-70
2021/06/22 06:47:13;;;;;;;6.00;4.00;;;16.00;99.90;;;;;;4989239;28;20323;-70
2021/06/22 06:49:41;;;;;;;6.87;4.10;;;16.10;99.90;;;;;;4986394;28;20189;-70
2021/06/22 06:52:07;;;;;;;6.20;4.53;;;16.10;99.90;;;;;;4989147;28;20768;-70
2021/06/22 06:54:33;;;;;;;6.43;3.80;;;16.20;99.90;;;;;;4995028;28;21520;-71
2021/06/22 06:56:58;;;;;;;8.90;3.97;;;16.40;99.90;;;;;;4995604;28;20217;-70
2021/06/22 06:59:24;;;;;;;5.70;4.00;;;16.50;99.90;;;;;;4988906;28;20201;-70
2021/06/22 07:01:50;;;;;;;5.13;3.53;;;16.60;99.90;;;;;;4990894;28;20303;-70
2021/06/22 07:04:16;;;;;;;7.30;4.00;;;16.60;99.90;;;;;;4997903;28;20190;-70
2021/06/22 07:06:42;;;;;;;8.23;4.07;;;16.80;99.90;;;;;;4971626;28;20320;-70
2021/06/22 07:09:08;;;;;;;6.90;4.13;;;16.80;99.90;;;;;;4997564;28;20191;-70
2021/06/22 07:11:34;;;;;;;7.20;3.60;;;16.90;99.90;;;;;;5009963;28;20319;-71
2021/06/22 07:14:00;;;;;;;7.20;4.10;;;17.00;99.90;;;;;;5004135;28;20724;-71
2021/06/22 07:16:26;;;;;;;8.30;4.10;;;17.20;99.90;;;;;;4976757;28;21020;-70
2021/06/22 07:18:52;;;;;;;5.13;4.17;;;17.20;99.90;;;;;;4988271;28;20197;-70
2021/06/22 07:21:18;;;;;;;6.73;3.73;;;17.20;99.90;;;;;;4974493;28;20689;-67
2021/06/22 07:23:44;;;;;;;7.13;4.10;;;17.20;99.90;;;;;;4990954;28;20932;-71
2021/06/22 07:26:10;;;;;;;6.87;3.57;;;17.20;99.90;;;;;;4977305;28;20651;-71
2021/06/22 07:28:36;;;;;;;5.23;3.80;;;17.30;99.90;;;;;;4990246;28;20621;-70
2021/06/22 07:31:07;;;;;;;8.30;3.77;;;17.30;99.90;;;;;;4987557;28;20652;-68
2021/06/22 07:33:35;;;;;;;6.57;3.60;;;17.40;99.90;;;;;;4988908;28;20214;-68
2021/06/22 07:36:01;;;;;;;4.20;3.80;;;17.40;99.90;;;;;;4995843;28;20640;-68
2021/06/22 07:38:26;;;;;;;8.20;3.60;;;17.50;99.90;;;;;;4994082;28;20648;-70
2021/06/22 07:40:56;;;;;;;5.13;3.77;;;17.40;99.90;;;;;;4986847;28;21206;-69
2021/06/22 07:43:22;;;;;;;4.97;3.27;;;17.40;99.90;;;;;;4989623;28;20196;-69
2021/06/22 07:45:47;;;;;;;5.37;3.67;;;17.40;99.90;;;;;;5107931;22;21244;-69
2021/06/22 07:48:13;;;;;;;6.27;4.10;;;17.30;99.90;;;;;;5043150;28;20637;-69
2021/06/22 07:50:38;;;;;;;3.60;3.27;;;17.40;99.90;;;;;;5042499;28;20800;-69
2021/06/22 07:53:06;;;;;;;7.73;4.30;;;17.50;99.90;;;;;;5017923;28;20215;-69
2021/06/22 07:55:34;;;;;;;4.97;3.87;;;17.60;99.90;;;;;;5019487;28;20304;-69
2021/06/22 07:58:00;;;;;;;6.50;3.77;;;17.70;99.90;;;;;;5021344;28;21216;-69
2021/06/22 08:00:42;;;;;;;5.40;3.73;;;17.80;99.90;;;;;;5005913;28;20651;-69
2021/06/22 08:03:10;;;;;;;5.87;3.97;;;17.90;99.90;;;;;;5007896;28;20186;-69
2021/06/22 08:05:37;;;;;;;4.60;3.80;;;18.00;99.90;;;;;;5002987;28;20698;-69
2021/06/22 08:08:03;;;;;;;5.83;4.23;;;18.10;99.90;;;;;;5006074;28;20631;-69
2021/06/22 08:10:28;;;;;;;6.73;4.47;;;18.10;99.90;;;;;;5001663;28;20659;-69
2021/06/22 08:12:54;;;;;;;5.27;3.83;;;18.20;99.90;;;;;;5032994;28;20655;-69
2021/06/22 08:15:22;;;;;;;6.30;4.23;;;18.20;99.90;;;;;;4999695;28;20652;-70
2021/06/22 08:17:47;;;;;;;6.03;3.97;;;18.20;99.90;;;;;;5003322;28;20189;-71
2021/06/22 08:20:13;;;;;;;5.33;4.23;;;18.20;99.90;;;;;;5013807;28;20608;-69
2021/06/22 08:22:39;;;;;;;5.80;4.57;;;18.20;99.90;;;;;;5033331;28;20216;-69
2021/06/22 08:25:07;;;;;;;4.03;3.63;;;18.20;99.90;;;;;;5014660;28;20239;-69
2021/06/22 08:27:32;;;;;;;5.50;4.20;;;18.10;99.90;;;;;;5014996;28;20750;-67
2021/06/22 08:29:58;;;;;;;4.93;3.90;;;18.10;99.90;;;;;;5002506;28;20711;-70
2021/06/22 08:32:23;;;;;;;8.13;4.00;;;18.00;99.90;;;;;;4997347;28;20611;-69
2021/06/22 08:34:49;;;;;;;5.10;4.10;;;18.00;99.90;;;;;;5016150;28;20568;-69
2021/06/22 08:37:17;;;;;;;6.60;4.03;;;18.10;99.90;;;;;;5013952;28;20193;-69
2021/06/22 08:39:42;;;;;;;5.67;4.13;;;18.10;99.90;;;;;;5006450;28;20617;-70
2021/06/22 08:42:10;;;;;;;6.40;3.87;;;18.10;99.90;;;;;;5010233;28;20674;-70
2021/06/22 08:44:37;;;;;;;5.77;4.50;;;18.10;99.90;;;;;;5009571;28;20189;-69
2021/06/22 08:47:03;;;;;;;6.07;4.00;;;18.10;99.90;;;;;;5027205;28;21233;-69
2021/06/22 08:49:33;;;;;;;5.33;4.53;;;18.20;99.90;;;;;;5031662;28;21286;-69
2021/06/22 08:52:00;;;;;;;7.27;4.27;;;18.30;99.90;;;;;;5026042;28;21538;-69
2021/06/22 08:54:26;;;;;;;7.77;5.20;;;18.20;99.90;;;;;;5026447;28;20634;-69
2021/06/22 08:56:54;;;;;;;5.53;3.77;;;18.30;99.90;;;;;;5026411;28;20647;-71
2021/06/22 08:59:20;;;;;;;6.20;4.17;;;18.20;99.90;;;;;;5023564;28;20704;-69
2021/06/22 09:01:46;;;;;;;7.23;3.87;;;18.30;99.90;;;;;;5029216;28;20810;-72
2021/06/22 09:04:11;;;;;;;6.80;4.03;;;18.30;99.90;;;;;;5026141;28;20222;-69
2021/06/22 09:06:41;;;;;;;6.87;4.50;;;18.40;99.90;;;;;;5019309;28;20212;-70
2021/06/22 09:09:08;;;;;;;7.97;4.57;;;18.50;99.90;;;;;;5011416;28;20195;-70
2021/06/22 09:11:34;;;;;;;5.00;3.60;;;18.60;99.90;;;;;;5024387;28;21132;-69
2021/06/22 09:14:02;;;;;;;4.70;3.63;;;18.70;99.90;;;;;;5031912;28;20661;-69
2021/06/22 09:16:28;;;;;;;4.53;3.70;;;18.60;99.90;;;;;;5023742;28;20711;-69
2021/06/22 09:19:05;;;;;;;4.10;3.57;;;18.60;99.90;;;;;;5023681;28;20791;-69
2021/06/22 09:21:43;;;;;;;9.00;3.53;;;18.50;99.90;;;;;;5027811;28;20642;-71
2021/06/22 09:24:24;;;;;;;5.70;3.83;;;18.50;99.90;;;;;;5029986;28;21109;-69
2021/06/22 09:26:51;;;;;;;4.70;3.37;;;18.50;99.90;;;;;;5030719;28;20623;-68
2021/06/22 09:29:20;;;;;;;5.47;3.40;;;18.50;99.90;;;;;;5035711;28;20669;-69
2021/06/22 09:31:49;;;;;;;5.80;3.67;;;18.50;99.90;;;;;;5023162;28;20637;-70
2021/06/22 09:34:17;;;;;;;3.80;3.40;;;18.60;99.90;;;;;;5020770;28;20653;-70
2021/06/22 09:36:50;;;;;;;5.10;3.40;;;18.60;99.90;;;;;;5026402;28;20669;-68
2021/06/22 09:39:16;;;;;;;7.60;3.87;;;18.70;99.90;;;;;;5029721;28;20606;-69
2021/06/22 09:41:43;;;;;;;7.33;3.60;;;18.90;99.90;;;;;;5034290;28;20652;-68
2021/06/22 09:44:14;;;;;;;4.00;3.67;;;19.10;99.90;;;;;;5035484;28;21062;-69
2021/06/22 09:46:41;;;;;;;4.90;3.90;;;19.10;99.90;;;;;;5033468;28;20634;-69
2021/06/22 09:49:24;;;;;;;4.20;3.13;;;19.00;99.90;;;;;;5030838;28;20619;-68
2021/06/22 09:52:04;;;;;;;7.50;3.90;;;19.00;99.90;;;;;;5030516;28;21240;-68
2021/06/22 09:54:34;;;;;;;4.23;3.80;;;19.00;99.90;;;;;;5032497;28;20671;-68
2021/06/22 09:57:11;;;;;;;6.80;3.93;;;19.10;99.90;;;;;;5028895;28;20659;-70
2021/06/22 09:59:54;;;;;;;5.87;3.97;;;19.20;99.90;;;;;;5020803;28;20615;-68
2021/06/22 10:02:22;;;;;;;5.40;3.50;;;19.30;99.90;;;;;;5025669;28;21210;-68
2021/06/22 10:04:53;;;;;;;4.23;3.43;;;19.40;99.90;;;;;;5029621;28;20619;-69
2021/06/22 10:07:23;;;;;;;5.63;3.87;;;19.40;99.90;;;;;;5034238;28;21202;-69
2021/06/22 10:09:54;;;;;;;3.63;3.03;;;19.30;99.90;;;;;;5028390;28;20615;-68
2021/06/22 10:12:21;;;;;;;5.93;3.30;;;19.30;99.90;;;;;;5023419;28;20728;-69
2021/06/22 10:14:48;;;;;;;3.90;3.13;;;19.40;99.90;;;;;;5029801;28;20624;-68
2021/06/22 10:17:18;;;;;;;4.30;3.33;;;19.40;99.90;;;;;;5048603;28;20654;-68
2021/06/22 10:19:46;;;;;;;7.00;3.70;;;19.30;99.90;;;;;;5040852;28;21177;-68
2021/06/22 10:22:13;;;;;;;5.13;3.60;;;19.40;99.90;;;;;;5041064;28;20704;-68
2021/06/22 10:24:43;;;;;;;3.90;3.33;;;19.60;99.90;;;;;;5028575;28;20711;-68
2021/06/22 10:27:10;;;;;;;5.60;3.40;;;19.60;99.90;;;;;;5032934;28;20717;-69
2021/06/22 10:29:36;;;;;;;5.37;3.43;;;19.70;99.90;;;;;;5029825;28;20759;-68
2021/06/22 10:32:02;;;;;;;5.10;3.40;;;19.70;99.90;;;;;;5021381;28;20650;-68
2021/06/22 10:34:28;;;;;;;5.47;3.43;;;19.60;99.90;;;;;;5030520;28;20614;-69
2021/06/22 10:37:00;;;;;;;5.43;3.60;;;19.70;99.90;;;;;;5032145;28;20627;-69
2021/06/22 10:39:40;;;;;;;4.17;3.70;;;19.90;99.90;;;;;;5041302;28;20614;-69
2021/06/22 10:42:12;;;;;;;7.17;4.00;;;19.90;99.90;;;;;;5044739;28;20712;-69
2021/06/22 10:44:48;;;;;;;5.93;3.70;;;19.90;99.90;;;;;;5015244;28;20614;-69
2021/06/22 10:47:27;;;;;;;6.60;3.77;;;19.80;99.90;;;;;;5017902;28;20651;-69
2021/06/22 10:50:09;;;;;;;9.07;3.93;;;19.80;99.90;;;;;;5027678;28;20630;-69
2021/06/22 10:52:48;;;;;;;6.10;3.40;;;19.80;99.90;;;;;;5016124;28;20914;-69
2021/06/22 10:55:22;;;;;;;5.90;3.70;;;19.70;99.90;;;;;;5023455;28;20702;-69
2021/06/22 10:58:07;;;;;;;5.30;3.50;;;19.70;99.90;;;;;;5030517;28;20970;-69
2021/06/22 11:00:39;;;;;;;5.70;3.47;;;19.70;99.90;;;;;;5025897;28;20630;-69
2021/06/22 11:03:09;;;;;;;6.83;4.47;;;19.80;99.90;;;;;;5027037;28;20611;-69
2021/06/22 11:05:41;;;;;;;5.93;3.33;;;19.80;99.90;;;;;;5027269;28;21301;-69
2021/06/22 11:08:16;;;;;;;6.33;4.30;;;20.00;99.90;;;;;;5027389;28;20647;-69
2021/06/22 11:11:02;;;;;;;4.87;4.37;;;20.00;99.90;;;;;;5021187;28;20653;-69
2021/06/22 11:13:52;;;;;;;6.60;4.57;;;20.20;99.90;;;;;;5031092;28;21018;-69
2021/06/22 11:16:18;;;;;;;3.77;3.20;;;20.30;99.90;;;;;;5029040;28;20634;-69
2021/06/22 11:18:55;;;;;;;5.10;3.47;;;20.40;99.90;;;;;;5030501;28;20744;-69
2021/06/22 11:21:32;;;;;;;4.30;3.50;;;20.40;99.90;;;;;;5027418;28;20258;-71
2021/06/22 11:24:15;;;;;;;7.23;3.60;;;20.40;99.90;;;;;;5044692;28;20689;-71
2021/06/22 11:26:41;;;;;;;4.80;3.50;;;20.30;99.90;;;;;;5045833;28;20630;-69
2021/06/22 11:29:09;;;;;;;4.23;2.90;;;20.40;99.90;;;;;;5022457;28;20615;-68
2021/06/22 11:31:38;;;;;;;5.13;3.00;;;20.50;99.90;;;;;;5034928;28;20232;-68
2021/06/22 11:34:18;;;;;;;4.83;3.20;;;20.60;99.90;;;;;;5025673;28;20649;-69
2021/06/22 11:36:49;;;;;;;4.50;3.10;;;20.60;99.90;;;;;;5030907;28;20646;-69
2021/06/22 11:39:27;;;;;;;4.73;3.17;;;20.60;99.90;;;;;;5032406;28;20773;-69
2021/06/22 11:44:42;;;;;;;5.17;2.87;;;20.70;99.90;;;;;;5042690;28;20607;-69
2021/06/22 11:47:24;;;;;;;5.33;3.17;;;20.70;99.90;;;;;;5027829;28;20642;-69
2021/06/22 11:49:55;;;;;;;7.30;3.17;;;20.80;99.90;;;;;;5028897;28;20653;-69
2021/06/22 11:52:30;;;;;;;3.93;2.73;;;20.80;99.90;;;;;;5020223;28;20651;-72
2021/06/22 11:55:01;;;;;;;5.37;3.20;;;21.00;99.90;;;;;;5030485;28;21198;-73
2021/06/22 11:57:29;;;;;;;3.57;2.40;;;21.10;99.90;;;;;;5025283;28;20723;-69
2021/06/22 12:00:05;;;;;;;6.80;2.90;;;21.00;99.90;;;;;;5033903;28;20625;-69
2021/06/22 12:02:30;;;;;;;5.80;2.60;;;21.20;99.90;;;;;;5038219;28;20680;-69
2021/06/22 12:05:10;;;;;;;5.47;2.87;;;21.30;99.90;;;;;;5021540;28;21061;-69
2021/06/22 12:07:47;;;;;;;7.20;2.77;;;21.50;99.90;;;;;;5026316;28;20264;-69
2021/06/22 12:10:14;;;;;;;7.30;2.97;;;21.80;99.90;;;;;;5023674;28;20614;-70
2021/06/22 12:12:44;;;;;;;3.70;2.70;;;21.90;99.90;;;;;;5040501;28;20653;-69
2021/06/22 12:15:11;;;;;;;3.90;3.13;;;21.90;99.90;;;;;;5011922;28;20661;-69
2021/06/22 12:17:37;;;;;;;3.90;2.97;;;21.80;99.90;;;;;;5026966;28;20623;-69
2021/06/22 12:20:23;;;;;;;6.13;2.90;;;22.00;99.90;;;;;;5026183;28;23366;-69
2021/06/22 12:23:05;;;;;;;4.27;2.57;;;22.10;99.90;;;;;;5033372;28;20278;-69
2021/06/22 12:25:43;;;;;;;6.23;2.60;;;22.10;99.90;;;;;;5030621;28;20722;-69
2021/06/22 12:28:09;;;;;;;6.50;2.90;;;22.00;99.90;;;;;;5027742;28;20623;-69
2021/06/22 12:30:41;;;;;;;4.00;2.60;;;22.00;99.90;;;;;;5017596;28;20969;-70
2021/06/22 12:33:17;;;;;;;5.73;2.50;;;22.00;99.90;;;;;;5025156;28;20675;-69
2021/06/22 12:35:49;;;;;;;5.47;2.40;;;22.10;99.90;;;;;;5025721;28;20713;-69
2021/06/22 12:38:17;;;;;;;5.77;2.60;;;22.20;99.90;;;;;;5021946;28;20986;-69
2021/06/22 12:40:48;;;;;;;2.97;2.27;;;22.20;99.90;;;;;;5027048;28;20958;-69
2021/06/22 12:43:16;;;;;;;5.43;2.93;;;22.40;99.90;;;;;;5026406;28;20634;-69
2021/06/22 12:45:42;;;;;;;3.57;2.50;;;22.40;99.90;;;;;;5037327;28;21042;-72
2021/06/22 12:48:09;;;;;;;8.60;3.27;;;22.40;99.90;;;;;;5028169;28;20718;-69
2021/06/22 12:50:37;;;;;;;5.43;2.50;;;22.50;99.90;;;;;;5027289;28;20636;-69
2021/06/22 12:53:03;;;;;;;5.13;2.50;;;22.60;99.90;;;;;;5031483;28;22072;-69